createdAt,value
2023-05-05T00:01:16.250Z,60.55
2023-05-05T00:03:43.200Z,60.40
2023-05-05T00:06:10.123Z,60.79
2023-05-05T00:08:37.364Z,60.59
2023-05-05T00:11:04.251Z,60.19
2023-05-05T00:13:31.529Z,60.44
2023-05-05T00:15:58.301Z,60.55
2023-05-05T00:18:25.470Z,60.89
2023-05-05T00:20:52.442Z,61.32
2023-05-05T00:23:20.264Z,61.87
2023-05-05T00:25:47.141Z,62.07
2023-05-05T00:28:14.082Z,62.17
2023-05-05T00:30:41.566Z,62.27
2023-05-05T00:33:09.828Z,62.22
2023-05-05T00:35:36.761Z,62.40
2023-05-05T00:38:03.730Z,62.33
2023-05-05T00:40:31.247Z,62.03
2023-05-05T00:42:58.158Z,62.56
2023-05-05T00:45:26.336Z,62.45
2023-05-05T00:47:59.018Z,62.64
2023-05-05T00:50:31.386Z,62.91
2023-05-05T00:53:02.442Z,63.52
2023-05-05T00:55:33.736Z,63.57
2023-05-05T00:58:02.338Z,63.52
2023-05-05T01:00:30.910Z,64.13
2023-05-05T01:02:59.835Z,64.00
2023-05-05T01:05:42.448Z,63.87
2023-05-05T01:08:43.332Z,64.13
2023-05-05T01:11:18.648Z,64.47
2023-05-05T01:14:00.993Z,64.59
2023-05-05T01:16:31.337Z,64.51
2023-05-05T01:19:01.210Z,64.99
2023-05-05T01:21:33.711Z,65.13
2023-05-05T01:24:15.458Z,64.76
2023-05-05T01:27:19.784Z,65.14
2023-05-05T01:30:05.470Z,64.63
2023-05-05T01:32:38.700Z,64.60
2023-05-05T01:35:38.023Z,65.31
2023-05-05T01:38:22.363Z,65.69
2023-05-05T01:40:58.057Z,66.51
2023-05-05T01:43:29.958Z,65.87
2023-05-05T01:45:59.437Z,65.54
2023-05-05T01:48:26.728Z,65.40
2023-05-05T01:50:54.287Z,65.72
2023-05-05T01:53:24.397Z,66.11
2023-05-05T01:55:54.196Z,66.01
2023-05-05T01:58:23.643Z,66.29
2023-05-05T02:00:51.778Z,66.30
2023-05-05T02:03:20.913Z,66.34
2023-05-05T02:05:50.269Z,66.03
2023-05-05T02:08:17.929Z,66.40
2023-05-05T02:10:47.285Z,66.87
2023-05-05T02:13:15.191Z,66.81
2023-05-05T02:15:44.303Z,67.18
2023-05-05T02:18:11.771Z,67.60
2023-05-05T02:20:40.454Z,66.79
2023-05-05T02:23:08.438Z,66.76
2023-05-05T02:25:50.497Z,67.31
2023-05-05T02:28:35.093Z,66.74
2023-05-05T02:31:05.991Z,66.76
2023-05-05T02:33:35.287Z,67.56
2023-05-05T02:36:11.480Z,67.79
2023-05-05T02:38:53.206Z,67.74
2023-05-05T02:41:23.737Z,67.75
2023-05-05T02:43:54.147Z,67.65
2023-05-05T02:46:21.901Z,68.20
2023-05-05T02:48:48.717Z,68.28
2023-05-05T02:51:15.612Z,68.31
2023-05-05T02:53:42.779Z,68.25
2023-05-05T02:56:14.880Z,68.68
2023-05-05T02:59:00.291Z,68.57
2023-05-05T03:01:54.874Z,69.08
2023-05-05T03:04:37.389Z,69.05
2023-05-05T03:07:12.235Z,68.43
2023-05-05T03:09:46.778Z,67.99
2023-05-05T03:12:21.225Z,68.65
2023-05-05T03:15:15.431Z,68.98
2023-05-05T03:17:44.381Z,69.05
2023-05-05T03:20:12.752Z,69.00
2023-05-05T03:22:42.580Z,69.29
2023-05-05T03:25:13.038Z,69.07
2023-05-05T03:27:40.999Z,69.65
2023-05-05T03:30:09.657Z,70.11
2023-05-05T03:32:44.766Z,70.18
2023-05-05T03:35:11.784Z,70.12
2023-05-05T03:37:38.825Z,70.22
2023-05-05T03:40:06.345Z,70.14
2023-05-05T03:42:33.568Z,70.22
2023-05-05T03:45:00.372Z,70.30
2023-05-05T03:47:28.107Z,70.44
2023-05-05T03:49:56.582Z,70.83
2023-05-05T03:52:23.377Z,71.06
2023-05-05T03:54:50.540Z,71.05
2023-05-05T03:57:18.372Z,71.14
2023-05-05T03:59:45.216Z,71.08
2023-05-05T04:02:12.896Z,71.25
2023-05-05T04:04:40.299Z,71.67
2023-05-05T04:07:07.229Z,71.46
2023-05-05T04:09:34.038Z,71.84
2023-05-05T04:12:00.981Z,71.67
2023-05-05T04:14:28.037Z,71.84
2023-05-05T04:16:54.949Z,71.73
2023-05-05T04:19:22.587Z,71.92
2023-05-05T04:21:49.548Z,71.98
2023-05-05T04:24:17.150Z,72.27
2023-05-05T04:26:44.858Z,72.33
2023-05-05T04:29:12.018Z,72.22
2023-05-05T04:31:39.517Z,72.67
2023-05-05T04:34:06.473Z,72.70
2023-05-05T04:36:33.512Z,72.80
2023-05-05T04:39:00.690Z,73.19
2023-05-05T04:41:30.104Z,72.86
2023-05-05T04:43:58.101Z,72.05
2023-05-05T04:46:25.747Z,72.86
2023-05-05T04:48:52.685Z,72.44
2023-05-05T04:51:20.933Z,72.17
2023-05-05T04:53:47.772Z,72.01
2023-05-05T04:56:14.708Z,71.96
2023-05-05T04:58:41.707Z,72.12
2023-05-05T05:01:08.554Z,71.96
2023-05-05T05:03:35.492Z,71.58
2023-05-05T05:06:02.579Z,70.62
2023-05-05T05:08:30.372Z,71.19
2023-05-05T05:10:57.181Z,71.48
2023-05-05T05:13:24.655Z,71.10
2023-05-05T05:15:51.956Z,71.19
2023-05-05T05:18:18.872Z,71.27
2023-05-05T05:20:47.508Z,70.07
2023-05-05T05:23:15.377Z,69.92
2023-05-05T05:25:44.319Z,69.46
2023-05-05T05:28:12.770Z,69.50
2023-05-05T05:30:45.894Z,70.05
2023-05-05T05:33:12.874Z,70.33
2023-05-05T05:35:40.705Z,70.15
2023-05-05T05:38:08.289Z,69.42
2023-05-05T05:40:35.485Z,69.13
2023-05-05T05:43:02.720Z,69.08
2023-05-05T05:45:30.054Z,68.53
2023-05-05T05:47:57.024Z,67.96
2023-05-05T05:50:24.217Z,68.16
2023-05-05T05:52:51.047Z,68.34
2023-05-05T05:55:18.875Z,68.80
2023-05-05T05:57:45.625Z,68.79
2023-05-05T06:00:14.528Z,68.69
2023-05-05T06:02:46.266Z,67.36
2023-05-05T06:05:17.244Z,66.81
2023-05-05T06:07:45.638Z,67.04
2023-05-05T06:10:26.724Z,67.09
2023-05-05T06:12:59.640Z,67.12
2023-05-05T06:15:27.640Z,66.41
2023-05-05T06:17:54.758Z,65.96
2023-05-05T06:20:22.750Z,66.94
2023-05-05T06:22:49.563Z,66.57
2023-05-05T06:25:17.647Z,67.38
2023-05-05T06:27:45.249Z,67.87
2023-05-05T06:30:12.829Z,67.42
2023-05-05T06:32:39.615Z,67.70
2023-05-05T06:35:07.100Z,68.54
2023-05-05T06:37:33.962Z,68.09
2023-05-05T06:40:00.774Z,68.04
2023-05-05T06:42:27.771Z,68.21
2023-05-05T06:44:57.504Z,67.46
2023-05-05T06:47:24.419Z,67.04
2023-05-05T06:49:51.325Z,66.77
2023-05-05T06:52:18.066Z,67.35
2023-05-05T06:54:44.916Z,66.87
2023-05-05T06:57:11.834Z,66.42
2023-05-05T06:59:39.099Z,66.65
2023-05-05T07:02:06.414Z,66.32
2023-05-05T07:04:33.188Z,65.62
2023-05-05T07:07:00.001Z,65.65
2023-05-05T07:09:26.906Z,65.70
2023-05-05T07:11:53.608Z,64.74
2023-05-05T07:14:22.710Z,64.04
2023-05-05T07:16:51.047Z,64.08
2023-05-05T07:19:17.906Z,63.63
2023-05-05T07:21:45.055Z,63.63
2023-05-05T07:24:11.828Z,63.83
2023-05-05T07:26:38.752Z,63.08
2023-05-05T07:29:05.662Z,63.48
2023-05-05T07:31:32.870Z,63.91
2023-05-05T07:33:59.664Z,63.52
2023-05-05T07:36:26.928Z,62.80
2023-05-05T07:38:54.479Z,61.01
2023-05-05T07:41:21.935Z,61.19
2023-05-05T07:43:48.905Z,61.91
2023-05-05T07:46:15.784Z,60.85
2023-05-05T07:48:42.880Z,60.61
2023-05-05T07:51:10.151Z,60.67
2023-05-05T07:53:37.396Z,58.86
2023-05-05T07:56:04.339Z,60.50
2023-05-05T07:58:31.285Z,59.34
2023-05-05T08:00:59.351Z,58.47
2023-05-05T08:03:26.624Z,57.57
2023-05-05T08:05:54.728Z,60.08
2023-05-05T08:08:21.956Z,61.59
2023-05-05T08:10:49.930Z,61.46
2023-05-05T08:13:16.878Z,60.51
2023-05-05T08:15:43.816Z,59.80
2023-05-05T08:18:10.713Z,61.19
2023-05-05T08:20:37.686Z,59.89
2023-05-05T08:23:04.680Z,59.40
2023-05-05T08:25:31.619Z,61.02
2023-05-05T08:27:58.512Z,59.80
2023-05-05T08:30:25.374Z,60.23
2023-05-05T08:32:52.181Z,59.40
2023-05-05T08:35:19.081Z,58.96
2023-05-05T08:37:45.974Z,57.86
2023-05-05T08:40:13.650Z,57.66
2023-05-05T08:42:41.084Z,57.86
2023-05-05T08:45:09.963Z,60.13
2023-05-05T08:47:38.382Z,59.26
2023-05-05T08:50:07.138Z,59.75
2023-05-05T08:52:42.912Z,60.00
2023-05-05T08:55:18.189Z,58.55
2023-05-05T08:57:53.201Z,58.40
2023-05-05T09:00:21.317Z,58.65
2023-05-05T09:02:48.833Z,59.22
2023-05-05T09:05:17.773Z,59.82
2023-05-05T09:07:45.053Z,59.29
2023-05-05T09:10:12.557Z,60.52
2023-05-05T09:12:39.992Z,59.84
2023-05-05T09:15:13.915Z,59.22
2023-05-05T09:17:41.897Z,58.73
2023-05-05T09:20:13.399Z,58.35
2023-05-05T09:22:42.252Z,59.20
2023-05-05T09:25:11.681Z,58.90
2023-05-05T09:27:41.053Z,59.51
2023-05-05T09:30:09.752Z,57.75
2023-05-05T09:33:05.044Z,58.21
2023-05-05T09:35:52.659Z,58.51
2023-05-05T09:38:20.827Z,60.26
2023-05-05T09:40:52.493Z,59.01
2023-05-05T09:43:23.795Z,58.55
2023-05-05T09:45:51.085Z,57.96
2023-05-05T09:48:28.804Z,58.18
2023-05-05T09:50:56.746Z,58.12
2023-05-05T09:53:25.075Z,56.50
2023-05-05T09:56:00.259Z,56.69
2023-05-05T09:58:29.601Z,57.29
2023-05-05T10:00:58.297Z,56.99
2023-05-05T10:03:25.729Z,58.31
2023-05-05T10:05:55.949Z,57.88
2023-05-05T10:08:25.505Z,57.24
2023-05-05T10:11:03.230Z,57.67
2023-05-05T10:13:30.958Z,57.63
2023-05-05T10:15:59.725Z,54.73
2023-05-05T10:18:28.397Z,55.87
2023-05-05T10:21:00.219Z,57.65
2023-05-05T10:23:41.550Z,56.37
2023-05-05T10:26:10.522Z,56.18
2023-05-05T10:28:56.273Z,55.94
2023-05-05T10:31:49.921Z,56.50
2023-05-05T10:34:34.303Z,54.81
2023-05-05T10:37:01.487Z,57.20
2023-05-05T10:39:29.232Z,55.93
2023-05-05T10:42:00.446Z,56.40
2023-05-05T10:44:30.280Z,55.18
2023-05-05T10:46:58.154Z,55.88
2023-05-05T10:50:04.421Z,54.76
2023-05-05T10:52:52.807Z,54.84
2023-05-05T10:55:54.266Z,54.90
2023-05-05T10:58:51.036Z,54.82
2023-05-05T11:01:31.565Z,56.43
2023-05-05T11:04:21.891Z,55.09
2023-05-05T11:07:14.637Z,55.37
2023-05-05T11:10:20.677Z,53.88
2023-05-05T11:12:56.826Z,53.09
2023-05-05T11:15:27.033Z,54.07
2023-05-05T11:18:07.001Z,53.97
2023-05-05T11:20:37.502Z,53.67
2023-05-05T11:23:05.013Z,53.74
2023-05-05T11:25:34.834Z,54.06
2023-05-05T11:28:15.188Z,53.05
2023-05-05T11:30:57.849Z,53.84
2023-05-05T11:33:26.505Z,53.49
2023-05-05T11:36:00.216Z,54.69
2023-05-05T11:38:43.473Z,54.11
2023-05-05T11:41:10.202Z,54.05
2023-05-05T11:43:36.986Z,53.99
2023-05-05T11:46:16.957Z,54.42
2023-05-05T11:48:52.902Z,53.32
2023-05-05T11:51:20.167Z,52.97
2023-05-05T11:53:48.711Z,53.51
2023-05-05T11:56:17.448Z,51.81
2023-05-05T11:58:45.268Z,53.45
2023-05-05T12:01:12.317Z,52.90
2023-05-05T12:03:39.988Z,52.72
2023-05-05T12:06:08.370Z,52.21
2023-05-05T12:08:39.652Z,51.99
2023-05-05T12:11:11.032Z,51.86
2023-05-05T12:13:38.128Z,51.87
2023-05-05T12:16:15.835Z,52.17
2023-05-05T12:18:42.807Z,51.93
2023-05-05T12:21:20.057Z,52.19
2023-05-05T12:23:46.926Z,51.16
2023-05-05T12:26:32.249Z,50.28
2023-05-05T12:29:00.361Z,50.71
2023-05-05T12:31:40.325Z,49.86
2023-05-05T12:34:09.164Z,49.68
2023-05-05T12:36:37.566Z,48.51
2023-05-05T12:39:05.337Z,49.15
2023-05-05T12:41:32.961Z,49.70
2023-05-05T12:44:01.320Z,49.15
2023-05-05T12:46:29.133Z,49.40
2023-05-05T12:49:04.576Z,47.43
2023-05-05T12:51:32.963Z,48.65
2023-05-05T12:54:10.615Z,49.17
2023-05-05T12:56:45.533Z,48.88
2023-05-05T12:59:29.151Z,48.89
2023-05-05T13:02:00.968Z,48.72
2023-05-05T13:04:28.732Z,48.09
2023-05-05T13:07:12.792Z,48.51
2023-05-05T13:09:39.645Z,47.75
2023-05-05T13:12:06.813Z,46.74
2023-05-05T13:14:34.915Z,46.39
2023-05-05T13:17:01.886Z,46.84
2023-05-05T13:19:28.842Z,46.80
2023-05-05T13:21:56.539Z,47.46
2023-05-05T13:24:38.141Z,46.78
2023-05-05T13:27:09.693Z,45.78
2023-05-05T13:29:36.694Z,45.91
2023-05-05T13:32:03.771Z,44.52
2023-05-05T13:34:30.552Z,44.31
2023-05-05T13:36:57.553Z,45.02
2023-05-05T13:39:24.328Z,43.93
2023-05-05T13:41:51.371Z,44.70
2023-05-05T13:44:18.177Z,45.37
2023-05-05T13:46:45.672Z,44.72
2023-05-05T13:49:12.503Z,44.81
2023-05-05T13:51:39.344Z,44.52
2023-05-05T13:54:07.058Z,44.35
2023-05-05T13:56:34.698Z,44.38
2023-05-05T13:59:01.845Z,44.94
2023-05-05T14:01:28.723Z,45.08
2023-05-05T14:03:57.562Z,44.23
2023-05-05T14:06:24.957Z,44.89
2023-05-05T14:08:51.903Z,44.25
2023-05-05T14:11:20.044Z,44.87
2023-05-05T14:13:47.044Z,43.70
2023-05-05T14:16:14.187Z,43.67
2023-05-05T14:18:41.910Z,44.38
2023-05-05T14:21:08.860Z,44.10
2023-05-05T14:23:35.676Z,43.89
2023-05-05T14:26:02.517Z,44.07
2023-05-05T14:28:29.398Z,43.68
2023-05-05T14:30:56.187Z,43.84
2023-05-05T14:33:22.974Z,44.15
2023-05-05T14:35:49.933Z,43.99
2023-05-05T14:38:16.794Z,43.71
2023-05-05T14:40:43.938Z,43.12
2023-05-05T14:43:10.774Z,43.42
2023-05-05T14:45:37.729Z,42.86
2023-05-05T14:48:04.685Z,42.51
2023-05-05T14:50:31.578Z,42.29
2023-05-05T14:52:58.436Z,42.68
2023-05-05T14:55:25.245Z,42.87
2023-05-05T14:57:52.140Z,42.17
2023-05-05T15:00:19.530Z,42.21
2023-05-05T15:02:46.404Z,42.55
2023-05-05T15:05:13.445Z,42.31
2023-05-05T15:07:40.565Z,42.45
2023-05-05T15:10:07.801Z,42.29
2023-05-05T15:12:34.596Z,41.99
2023-05-05T15:15:01.776Z,41.41
2023-05-05T15:17:28.740Z,41.68
2023-05-05T15:19:55.478Z,41.33
2023-05-05T15:22:22.254Z,40.87
2023-05-05T15:24:49.129Z,41.29
2023-05-05T15:27:15.978Z,41.46
2023-05-05T15:29:42.826Z,41.79
2023-05-05T15:32:09.727Z,41.37
2023-05-05T15:34:36.431Z,40.99
2023-05-05T15:37:04.716Z,40.37
2023-05-05T15:39:31.442Z,40.28
2023-05-05T15:42:00.883Z,40.61
2023-05-05T15:44:27.812Z,40.12
2023-05-05T15:46:54.921Z,40.29
2023-05-05T15:49:21.966Z,39.99
2023-05-05T15:51:49.052Z,40.21
2023-05-05T15:54:15.848Z,39.65
2023-05-05T15:56:42.785Z,40.10
2023-05-05T15:59:10.059Z,40.55
2023-05-05T16:01:36.982Z,40.36
2023-05-05T16:04:04.050Z,40.14
2023-05-05T16:06:31.688Z,40.18
2023-05-05T16:08:58.876Z,39.98
2023-05-05T16:11:26.988Z,40.38
2023-05-05T16:13:53.918Z,40.10
2023-05-05T16:16:21.452Z,39.17
2023-05-05T16:18:49.252Z,38.41
2023-05-05T16:21:16.369Z,37.14
2023-05-05T16:23:43.398Z,36.03
2023-05-05T16:26:10.182Z,35.50
2023-05-05T16:28:37.000Z,35.18
2023-05-05T16:31:04.118Z,34.65
2023-05-05T16:33:32.115Z,34.44
2023-05-05T16:35:59.374Z,34.81
2023-05-05T16:38:26.679Z,35.36
2023-05-05T16:40:54.880Z,36.46
2023-05-05T16:43:22.965Z,36.77
2023-05-05T16:45:49.985Z,37.12
2023-05-05T16:48:16.849Z,37.36
2023-05-05T16:50:44.399Z,37.98
2023-05-05T16:53:11.435Z,38.08
2023-05-05T16:55:38.515Z,38.89
2023-05-05T16:58:06.359Z,39.13
2023-05-05T17:00:33.232Z,39.37
2023-05-05T17:03:00.185Z,39.35
2023-05-05T17:05:27.041Z,40.08
2023-05-05T17:07:54.207Z,40.18
2023-05-05T17:10:21.301Z,39.94
2023-05-05T17:12:48.402Z,40.32
2023-05-05T17:15:15.316Z,40.76
2023-05-05T17:17:43.741Z,40.64
2023-05-05T17:20:11.387Z,40.89
2023-05-05T17:22:38.401Z,40.95
2023-05-05T17:25:05.855Z,40.73
2023-05-05T17:27:32.852Z,40.84
2023-05-05T17:29:59.625Z,40.84
2023-05-05T17:32:32.503Z,41.01
2023-05-05T17:34:59.425Z,41.00
2023-05-05T17:37:29.765Z,41.01
2023-05-05T17:39:57.736Z,41.02
2023-05-05T17:42:24.530Z,41.08
2023-05-05T17:44:51.870Z,41.58
2023-05-05T17:47:19.035Z,41.49
2023-05-05T17:49:46.880Z,41.45
2023-05-05T17:52:15.006Z,41.51
2023-05-05T17:54:42.109Z,41.60
2023-05-05T17:57:34.053Z,42.08
2023-05-05T18:00:04.176Z,41.81
2023-05-05T18:02:39.808Z,42.00
2023-05-05T18:05:09.678Z,42.12
2023-05-05T18:07:37.390Z,41.84
2023-05-05T18:10:05.618Z,41.79
2023-05-05T18:12:34.659Z,42.03
2023-05-05T18:15:03.375Z,41.89
2023-05-05T18:17:30.245Z,42.01
2023-05-05T18:19:57.303Z,41.68
2023-05-05T18:22:24.042Z,42.11
2023-05-05T18:24:51.937Z,42.13
2023-05-05T18:27:20.494Z,42.13
2023-05-05T18:29:47.844Z,41.81
2023-05-05T18:32:14.624Z,42.26
2023-05-05T18:34:41.485Z,42.13
2023-05-05T18:37:08.459Z,42.89
2023-05-05T18:39:35.369Z,42.97
2023-05-05T18:42:02.185Z,43.08
2023-05-05T18:44:29.214Z,43.16
2023-05-05T18:46:56.291Z,43.58
2023-05-05T18:49:23.154Z,43.95
2023-05-05T18:51:49.943Z,44.36
2023-05-05T18:54:16.716Z,44.28
2023-05-05T18:56:44.319Z,44.78
2023-05-05T18:59:11.428Z,45.06
2023-05-05T19:01:38.540Z,45.63
2023-05-05T19:04:10.444Z,45.81
2023-05-05T19:06:43.317Z,46.08
2023-05-05T19:09:10.910Z,46.48
2023-05-05T19:11:37.617Z,46.50
2023-05-05T19:14:04.476Z,47.22
2023-05-05T19:16:31.249Z,47.17
2023-05-05T19:18:58.181Z,47.63
2023-05-05T19:21:27.113Z,47.78
2023-05-05T19:23:53.947Z,47.81
2023-05-05T19:26:20.701Z,48.28
2023-05-05T19:28:47.513Z,48.46
2023-05-05T19:31:14.902Z,48.90
2023-05-05T19:33:41.734Z,48.95
2023-05-05T19:36:08.559Z,49.38
2023-05-05T19:38:35.382Z,49.39
2023-05-05T19:41:02.271Z,49.90
2023-05-05T19:43:32.451Z,50.14
2023-05-05T19:45:59.418Z,50.49
2023-05-05T19:48:26.408Z,50.46
2023-05-05T19:50:53.387Z,50.72
2023-05-05T19:53:20.273Z,50.85
2023-05-05T19:55:47.142Z,51.34
2023-05-05T19:58:14.993Z,51.47
2023-05-05T20:00:42.337Z,51.69
2023-05-05T20:03:09.323Z,51.94
2023-05-05T20:05:37.006Z,51.68
2023-05-05T20:08:04.027Z,52.14
2023-05-05T20:10:30.980Z,52.35
2023-05-05T20:12:57.942Z,52.42
2023-05-05T20:15:24.751Z,52.78
2023-05-05T20:17:51.680Z,52.45
2023-05-05T20:20:21.448Z,52.49
2023-05-05T20:22:49.653Z,53.07
2023-05-05T20:25:17.376Z,53.26
2023-05-05T20:27:44.831Z,53.35
2023-05-05T20:30:12.018Z,53.56
2023-05-05T20:32:39.712Z,53.47
2023-05-05T20:35:07.178Z,53.75
2023-05-05T20:37:34.047Z,54.04
2023-05-05T20:40:00.898Z,54.25
2023-05-05T20:42:28.045Z,54.22
2023-05-05T20:44:55.051Z,54.32
2023-05-05T20:47:22.005Z,54.52
2023-05-05T20:49:49.439Z,54.74
2023-05-05T20:52:16.141Z,54.45
2023-05-05T20:54:43.041Z,54.99
2023-05-05T20:57:09.859Z,55.06
2023-05-05T20:59:37.867Z,54.99
2023-05-05T21:02:04.840Z,55.36
2023-05-05T21:04:31.848Z,55.04
2023-05-05T21:06:58.715Z,55.46
2023-05-05T21:09:25.774Z,55.72
2023-05-05T21:11:52.730Z,55.74
2023-05-05T21:14:19.627Z,55.60
2023-05-05T21:16:46.520Z,55.92
2023-05-05T21:19:13.496Z,56.36
2023-05-05T21:21:40.380Z,56.50
2023-05-05T21:24:08.183Z,56.43
2023-05-05T21:26:35.131Z,56.53
2023-05-05T21:29:01.936Z,56.31
2023-05-05T21:31:29.988Z,56.48
2023-05-05T21:33:57.338Z,56.74
2023-05-05T21:36:24.383Z,57.00
2023-05-05T21:38:51.177Z,57.19
2023-05-05T21:41:17.906Z,57.24
2023-05-05T21:43:44.977Z,57.65
2023-05-05T21:46:11.810Z,57.71
2023-05-05T21:48:39.380Z,58.18
2023-05-05T21:51:06.336Z,58.22
2023-05-05T21:53:33.146Z,58.58
2023-05-05T21:56:00.216Z,58.87
2023-05-05T21:58:27.086Z,59.09
2023-05-05T22:00:54.024Z,58.98
2023-05-05T22:03:21.661Z,59.30
2023-05-05T22:05:48.664Z,59.29
2023-05-05T22:08:15.611Z,59.58
2023-05-05T22:10:42.930Z,59.51
2023-05-05T22:13:10.754Z,59.96
2023-05-05T22:15:45.821Z,60.12
2023-05-05T22:18:14.780Z,59.62
2023-05-05T22:20:41.844Z,60.34
2023-05-05T22:23:08.758Z,61.05
2023-05-05T22:25:35.760Z,60.78
2023-05-05T22:28:02.683Z,61.03
2023-05-05T22:30:29.529Z,61.13
2023-05-05T22:32:56.386Z,60.95
2023-05-05T22:35:23.248Z,61.43
2023-05-05T22:37:49.993Z,61.36
2023-05-05T22:40:16.847Z,61.24
2023-05-05T22:42:43.782Z,61.92
2023-05-05T22:45:11.351Z,61.55
2023-05-05T22:47:38.937Z,61.69
2023-05-05T22:50:06.298Z,61.77
2023-05-05T22:52:33.184Z,62.41
2023-05-05T22:54:59.931Z,62.60
2023-05-05T22:57:26.898Z,61.79
2023-05-05T22:59:53.772Z,62.49
2023-05-05T23:02:20.519Z,62.60
2023-05-05T23:04:47.746Z,61.93
2023-05-05T23:07:14.505Z,61.64
2023-05-05T23:09:42.110Z,62.08
2023-05-05T23:12:08.876Z,61.98
2023-05-05T23:14:36.105Z,62.63
2023-05-05T23:20:19.109Z,62.43
2023-05-05T23:22:46.097Z,62.66
2023-05-05T23:25:12.992Z,62.91
2023-05-05T23:27:40.062Z,62.87
2023-05-05T23:30:08.889Z,63.24
2023-05-05T23:32:35.789Z,62.82
2023-05-05T23:35:02.718Z,63.13
2023-05-05T23:37:29.646Z,63.46
2023-05-05T23:39:56.939Z,63.21
2023-05-05T23:42:24.501Z,63.78
2023-05-05T23:44:51.661Z,63.72
2023-05-05T23:47:18.461Z,63.47
2023-05-05T23:49:45.445Z,63.65
2023-05-05T23:52:13.361Z,64.14
2023-05-05T23:54:40.640Z,64.44
2023-05-05T23:57:07.426Z,64.78
2023-05-05T23:59:34.960Z,64.86
